sensor_id;sensor_type;location;lat;lon;timestamp;temperature;humidity
1453;DHT22;720;47.738;7.998;2023-07-13T00:00:33;17.50;99.90
1453;DHT22;720;47.738;7.998;2023-07-13T00:02:59;17.50;99.90
1453;DHT22;720;47.738;7.998;2023-07-13T00:05:25;17.60;99.90
1453;DHT22;720;47.738;7.998;2023-07-13T00:07:51;17.70;99.90
1453;DHT22;720;47.738;7.998;2023-07-13T00:10:17;17.70;99.90
1453;DHT22;720;47.738;7.998;2023-07-13T00:12:43;17.70;99.90
1453;DHT22;720;47.738;7.998;2023-07-13T00:15:18;17.60;99.90
1453;DHT22;720;47.738;7.998;2023-07-13T00:17:52;17.60;99.90
1453;DHT22;720;47.738;7.998;2023-07-13T00:20:18;17.60;99.90
1453;DHT22;720;47.738;7.998;2023-07-13T00:22:47;17.60;99.90
1453;DHT22;720;47.738;7.998;2023-07-13T00:25:13;17.50;99.90
1453;DHT22;720;47.738;7.998;2023-07-13T00:27:39;17.50;99.90
1453;DHT22;720;47.738;7.998;2023-07-13T00:30:05;17.50;99.90
1453;DHT22;720;47.738;7.998;2023-07-13T00:32:31;17.40;99.90
1453;DHT22;720;47.738;7.998;2023-07-13T00:34:58;17.40;99.90
1453;DHT22;720;47.738;7.998;2023-07-13T00:37:25;17.40;99.90
1453;DHT22;720;47.738;7.998;2023-07-13T00:39:51;17.40;99.90
1453;DHT22;720;47.738;7.998;2023-07-13T00:42:16;17.40;99.90
1453;DHT22;720;47.738;7.998;2023-07-13T00:47:39;17.40;99.90
1453;DHT22;720;47.738;7.998;2023-07-13T00:50:14;17.50;99.90
1453;DHT22;720;47.738;7.998;2023-07-13T00:52:46;17.50;99.90
1453;DHT22;720;47.738;7.998;2023-07-13T00:55:13;17.40;99.90
1453;DHT22;720;47.738;7.998;2023-07-13T00:57:40;17.40;99.90
1453;DHT22;720;47.738;7.998;2023-07-13T01:00:08;17.40;99.90
1453;DHT22;720;47.738;7.998;2023-07-13T01:02:39;17.50;99.90
1453;DHT22;720;47.738;7.998;2023-07-13T01:05:16;17.50;99.90
1453;DHT22;720;47.738;7.998;2023-07-13T01:07:43;17.50;99.90
1453;DHT22;720;47.738;7.998;2023-07-13T01:10:13;17.40;99.90
1453;DHT22;720;47.738;7.998;2023-07-13T01:12:39;17.40;99.90
1453;DHT22;720;47.738;7.998;2023-07-13T01:15:32;17.40;99.90
1453;DHT22;720;47.738;7.998;2023-07-13T01:17:51;17.40;99.90
1453;DHT22;720;47.738;7.998;2023-07-13T01:20:17;17.40;99.90
1453;DHT22;720;47.738;7.998;2023-07-13T01:22:43;17.40;99.90
1453;DHT22;720;47.738;7.998;2023-07-13T01:25:09;17.40;99.90
1453;DHT22;720;47.738;7.998;2023-07-13T01:27:34;17.30;99.90
1453;DHT22;720;47.738;7.998;2023-07-13T01:30:01;17.40;99.90
1453;DHT22;720;47.738;7.998;2023-07-13T01:32:27;17.30;99.90
1453;DHT22;720;47.738;7.998;2023-07-13T01:34:54;17.20;99.90
1453;DHT22;720;47.738;7.998;2023-07-13T01:37:20;17.20;99.90
1453;DHT22;720;47.738;7.998;2023-07-13T01:39:46;17.10;99.90
1453;DHT22;720;47.738;7.998;2023-07-13T01:42:12;17.10;99.90
1453;DHT22;720;47.738;7.998;2023-07-13T01:44:38;17.00;99.90
1453;DHT22;720;47.738;7.998;2023-07-13T01:47:04;17.00;99.90
1453;DHT22;720;47.738;7.998;2023-07-13T01:49:30;17.00;99.90
1453;DHT22;720;47.738;7.998;2023-07-13T01:51:56;17.00;99.90
1453;DHT22;720;47.738;7.998;2023-07-13T01:54:21;17.00;99.90
1453;DHT22;720;47.738;7.998;2023-07-13T01:56:47;17.10;99.90
1453;DHT22;720;47.738;7.998;2023-07-13T01:59:13;17.20;99.90
1453;DHT22;720;47.738;7.998;2023-07-13T02:01:38;17.20;99.90
1453;DHT22;720;47.738;7.998;2023-07-13T02:04:04;17.20;99.90
1453;DHT22;720;47.738;7.998;2023-07-13T02:06:30;17.20;99.90
1453;DHT22;720;47.738;7.998;2023-07-13T02:08:55;17.20;99.90
1453;DHT22;720;47.738;7.998;2023-07-13T02:11:21;17.20;99.90
1453;DHT22;720;47.738;7.998;2023-07-13T02:13:47;17.10;99.90
1453;DHT22;720;47.738;7.998;2023-07-13T02:16:12;17.10;99.90
1453;DHT22;720;47.738;7.998;2023-07-13T02:18:38;17.10;99.90
1453;DHT22;720;47.738;7.998;2023-07-13T02:21:04;17.10;99.90
1453;DHT22;720;47.738;7.998;2023-07-13T02:23:30;17.10;99.90
1453;DHT22;720;47.738;7.998;2023-07-13T02:25:56;17.30;99.90
1453;DHT22;720;47.738;7.998;2023-07-13T02:28:22;17.00;99.90
1453;DHT22;720;47.738;7.998;2023-07-13T02:30:48;17.10;99.90
1453;DHT22;720;47.738;7.998;2023-07-13T02:33:14;17.10;99.90
1453;DHT22;720;47.738;7.998;2023-07-13T02:35:40;17.00;99.90
1453;DHT22;720;47.738;7.998;2023-07-13T02:38:06;17.10;99.90
1453;DHT22;720;47.738;7.998;2023-07-13T02:40:32;17.00;99.90
1453;DHT22;720;47.738;7.998;2023-07-13T02:43:01;17.00;99.90
1453;DHT22;720;47.738;7.998;2023-07-13T02:45:27;17.00;99.90
1453;DHT22;720;47.738;7.998;2023-07-13T02:47:53;17.10;99.90
1453;DHT22;720;47.738;7.998;2023-07-13T02:50:19;17.10;99.90
1453;DHT22;720;47.738;7.998;2023-07-13T02:52:45;17.10;99.90
1453;DHT22;720;47.738;7.998;2023-07-13T02:55:10;17.00;99.90
1453;DHT22;720;47.738;7.998;2023-07-13T02:57:36;17.00;99.90
1453;DHT22;720;47.738;7.998;2023-07-13T03:00:03;16.90;99.90
1453;DHT22;720;47.738;7.998;2023-07-13T03:02:33;17.00;99.90
1453;DHT22;720;47.738;7.998;2023-07-13T03:04:59;17.00;99.90
1453;DHT22;720;47.738;7.998;2023-07-13T03:07:25;17.00;99.90
1453;DHT22;720;47.738;7.998;2023-07-13T03:09:57;16.90;99.90
1453;DHT22;720;47.738;7.998;2023-07-13T03:12:23;16.90;99.90
1453;DHT22;720;47.738;7.998;2023-07-13T03:14:49;16.80;99.90
1453;DHT22;720;47.738;7.998;2023-07-13T03:17:15;16.80;99.90
1453;DHT22;720;47.738;7.998;2023-07-13T03:19:40;16.80;99.90
1453;DHT22;720;47.738;7.998;2023-07-13T03:22:06;16.80;99.90
1453;DHT22;720;47.738;7.998;2023-07-13T03:24:35;16.80;99.90
1453;DHT22;720;47.738;7.998;2023-07-13T03:27:04;16.80;99.90
1453;DHT22;720;47.738;7.998;2023-07-13T03:29:30;16.80;99.90
1453;DHT22;720;47.738;7.998;2023-07-13T03:31:55;16.80;99.90
1453;DHT22;720;47.738;7.998;2023-07-13T03:34:21;16.80;99.90
1453;DHT22;720;47.738;7.998;2023-07-13T03:36:46;16.80;99.90
1453;DHT22;720;47.738;7.998;2023-07-13T03:39:12;16.80;99.90
1453;DHT22;720;47.738;7.998;2023-07-13T03:41:38;16.80;99.90
1453;DHT22;720;47.738;7.998;2023-07-13T03:44:04;16.80;99.90
1453;DHT22;720;47.738;7.998;2023-07-13T03:46:29;16.80;99.90
1453;DHT22;720;47.738;7.998;2023-07-13T03:48:55;16.70;99.90
1453;DHT22;720;47.738;7.998;2023-07-13T03:51:21;16.80;99.90
1453;DHT22;720;47.738;7.998;2023-07-13T03:53:47;16.80;99.90
1453;DHT22;720;47.738;7.998;2023-07-13T03:56:14;16.70;99.90
1453;DHT22;720;47.738;7.998;2023-07-13T03:58:42;16.70;99.90
1453;DHT22;720;47.738;7.998;2023-07-13T04:01:09;16.70;99.90
1453;DHT22;720;47.738;7.998;2023-07-13T04:03:36;16.70;99.90
1453;DHT22;720;47.738;7.998;2023-07-13T04:06:03;16.70;99.90
1453;DHT22;720;47.738;7.998;2023-07-13T04:08:31;16.70;99.90
1453;DHT22;720;47.738;7.998;2023-07-13T04:10:57;16.80;99.90
1453;DHT22;720;47.738;7.998;2023-07-13T04:13:24;16.80;99.90
1453;DHT22;720;47.738;7.998;2023-07-13T04:15:50;16.70;99.90
1453;DHT22;720;47.738;7.998;2023-07-13T04:18:16;16.80;99.90
1453;DHT22;720;47.738;7.998;2023-07-13T04:20:42;16.90;99.90
1453;DHT22;720;47.738;7.998;2023-07-13T04:23:08;16.90;99.90
1453;DHT22;720;47.738;7.998;2023-07-13T04:25:33;17.00;99.90
1453;DHT22;720;47.738;7.998;2023-07-13T04:27:59;17.00;99.90
1453;DHT22;720;47.738;7.998;2023-07-13T04:30:25;17.00;99.90
1453;DHT22;720;47.738;7.998;2023-07-13T04:32:51;17.00;99.90
1453;DHT22;720;47.738;7.998;2023-07-13T04:35:18;17.00;99.90
1453;DHT22;720;47.738;7.998;2023-07-13T04:37:49;17.00;99.90
1453;DHT22;720;47.738;7.998;2023-07-13T04:40:19;17.00;99.90
1453;DHT22;720;47.738;7.998;2023-07-13T04:42:45;17.10;99.90
1453;DHT22;720;47.738;7.998;2023-07-13T04:45:12;17.10;99.90
1453;DHT22;720;47.738;7.998;2023-07-13T04:47:38;17.20;99.90
1453;DHT22;720;47.738;7.998;2023-07-13T04:50:04;17.20;99.90
1453;DHT22;720;47.738;7.998;2023-07-13T04:52:30;17.30;99.90
1453;DHT22;720;47.738;7.998;2023-07-13T04:54:56;17.30;99.90
1453;DHT22;720;47.738;7.998;2023-07-13T04:57:21;17.40;99.90
1453;DHT22;720;47.738;7.998;2023-07-13T04:59:47;17.40;99.90
1453;DHT22;720;47.738;7.998;2023-07-13T05:02:13;17.40;99.90
1453;DHT22;720;47.738;7.998;2023-07-13T05:04:38;17.50;99.90
1453;DHT22;720;47.738;7.998;2023-07-13T05:07:05;17.70;99.90
1453;DHT22;720;47.738;7.998;2023-07-13T05:09:31;17.80;99.90
1453;DHT22;720;47.738;7.998;2023-07-13T05:11:57;18.00;99.90
1453;DHT22;720;47.738;7.998;2023-07-13T05:14:22;18.00;99.90
1453;DHT22;720;47.738;7.998;2023-07-13T05:16:48;18.10;99.90
1453;DHT22;720;47.738;7.998;2023-07-13T05:19:14;18.10;99.90
1453;DHT22;720;47.738;7.998;2023-07-13T05:21:39;18.00;99.90
1453;DHT22;720;47.738;7.998;2023-07-13T05:24:06;17.90;99.90
1453;DHT22;720;47.738;7.998;2023-07-13T05:26:32;17.80;99.90
1453;DHT22;720;47.738;7.998;2023-07-13T05:28:57;17.80;99.90
1453;DHT22;720;47.738;7.998;2023-07-13T05:31:23;17.90;99.90
1453;DHT22;720;47.738;7.998;2023-07-13T05:33:48;18.00;99.90
1453;DHT22;720;47.738;7.998;2023-07-13T05:36:16;18.00;99.90
1453;DHT22;720;47.738;7.998;2023-07-13T05:38:42;18.10;99.90
1453;DHT22;720;47.738;7.998;2023-07-13T05:41:07;18.20;99.90
1453;DHT22;720;47.738;7.998;2023-07-13T05:43:33;18.30;99.90
1453;DHT22;720;47.738;7.998;2023-07-13T05:45:59;18.40;99.90
1453;DHT22;720;47.738;7.998;2023-07-13T05:48:25;18.40;99.90
1453;DHT22;720;47.738;7.998;2023-07-13T05:50:50;18.50;99.90
1453;DHT22;720;47.738;7.998;2023-07-13T05:53:16;18.50;99.90
1453;DHT22;720;47.738;7.998;2023-07-13T05:55:46;18.80;99.90
1453;DHT22;720;47.738;7.998;2023-07-13T05:58:13;18.60;99.90
1453;DHT22;720;47.738;7.998;2023-07-13T06:00:39;18.70;99.90
1453;DHT22;720;47.738;7.998;2023-07-13T06:03:06;18.80;99.90
1453;DHT22;720;47.738;7.998;2023-07-13T06:05:33;19.00;99.90
1453;DHT22;720;47.738;7.998;2023-07-13T06:07:59;19.20;99.90
1453;DHT22;720;47.738;7.998;2023-07-13T06:10:25;19.40;99.90
1453;DHT22;720;47.738;7.998;2023-07-13T06:12:50;19.70;99.90
1453;DHT22;720;47.738;7.998;2023-07-13T06:15:16;19.90;99.90
1453;DHT22;720;47.738;7.998;2023-07-13T06:17:42;20.20;99.90
1453;DHT22;720;47.738;7.998;2023-07-13T06:20:08;20.50;99.30
1453;DHT22;720;47.738;7.998;2023-07-13T06:22:33;20.80;98.60
1453;DHT22;720;47.738;7.998;2023-07-13T06:24:59;21.20;97.70
1453;DHT22;720;47.738;7.998;2023-07-13T06:27:25;21.40;96.50
1453;DHT22;720;47.738;7.998;2023-07-13T06:29:50;21.90;95.40
1453;DHT22;720;47.738;7.998;2023-07-13T06:32:16;22.70;95.10
1453;DHT22;720;47.738;7.998;2023-07-13T06:34:42;23.60;93.70
1453;DHT22;720;47.738;7.998;2023-07-13T06:37:08;24.70;91.10
1453;DHT22;720;47.738;7.998;2023-07-13T06:39:34;25.80;88.90
1453;DHT22;720;47.738;7.998;2023-07-13T06:41:59;26.90;83.60
1453;DHT22;720;47.738;7.998;2023-07-13T06:44:25;27.10;73.50
1453;DHT22;720;47.738;7.998;2023-07-13T06:46:50;27.10;74.30
1453;DHT22;720;47.738;7.998;2023-07-13T06:49:16;27.10;71.60
1453;DHT22;720;47.738;7.998;2023-07-13T06:51:41;27.30;67.50
1453;DHT22;720;47.738;7.998;2023-07-13T06:54:07;27.40;66.60
1453;DHT22;720;47.738;7.998;2023-07-13T06:56:33;27.30;66.90
1453;DHT22;720;47.738;7.998;2023-07-13T06:58:59;27.20;64.90
1453;DHT22;720;47.738;7.998;2023-07-13T07:01:25;27.20;63.60
1453;DHT22;720;47.738;7.998;2023-07-13T07:03:51;27.00;62.70
1453;DHT22;720;47.738;7.998;2023-07-13T07:06:18;26.90;63.50
1453;DHT22;720;47.738;7.998;2023-07-13T07:08:45;27.00;66.90
1453;DHT22;720;47.738;7.998;2023-07-13T07:11:22;27.50;62.50
1453;DHT22;720;47.738;7.998;2023-07-13T07:13:49;27.60;62.90
1453;DHT22;720;47.738;7.998;2023-07-13T07:16:15;27.40;62.00
1453;DHT22;720;47.738;7.998;2023-07-13T07:18:41;26.90;64.00
1453;DHT22;720;47.738;7.998;2023-07-13T07:21:06;27.00;65.20
1453;DHT22;720;47.738;7.998;2023-07-13T07:23:32;26.90;63.80
1453;DHT22;720;47.738;7.998;2023-07-13T07:25:58;27.20;80.80
1453;DHT22;720;47.738;7.998;2023-07-13T07:28:24;27.10;64.20
1453;DHT22;720;47.738;7.998;2023-07-13T07:30:53;26.90;64.00
1453;DHT22;720;47.738;7.998;2023-07-13T07:33:19;26.60;63.70
1453;DHT22;720;47.738;7.998;2023-07-13T07:35:45;26.40;70.40
1453;DHT22;720;47.738;7.998;2023-07-13T07:38:10;26.40;62.80
1453;DHT22;720;47.738;7.998;2023-07-13T07:40:37;26.60;61.60
1453;DHT22;720;47.738;7.998;2023-07-13T07:43:03;26.80;62.60
1453;DHT22;720;47.738;7.998;2023-07-13T07:45:28;26.80;65.30
1453;DHT22;720;47.738;7.998;2023-07-13T07:47:54;26.80;63.20
1453;DHT22;720;47.738;7.998;2023-07-13T07:50:24;26.20;63.80
1453;DHT22;720;47.738;7.998;2023-07-13T07:52:50;25.40;65.90
1453;DHT22;720;47.738;7.998;2023-07-13T07:55:16;25.80;63.60
1453;DHT22;720;47.738;7.998;2023-07-13T07:57:42;27.40;63.60
1453;DHT22;720;47.738;7.998;2023-07-13T08:00:08;29.40;57.70
1453;DHT22;720;47.738;7.998;2023-07-13T08:02:34;30.20;57.10
1453;DHT22;720;47.738;7.998;2023-07-13T08:04:59;30.40;55.30
1453;DHT22;720;47.738;7.998;2023-07-13T08:07:25;30.60;54.00
1453;DHT22;720;47.738;7.998;2023-07-13T08:09:54;31.00;52.70
1453;DHT22;720;47.738;7.998;2023-07-13T08:12:19;31.50;52.60
1453;DHT22;720;47.738;7.998;2023-07-13T08:14:45;32.00;51.20
1453;DHT22;720;47.738;7.998;2023-07-13T08:17:23;32.60;48.70
1453;DHT22;720;47.738;7.998;2023-07-13T08:19:51;33.70;46.10
1453;DHT22;720;47.738;7.998;2023-07-13T08:22:16;34.00;44.60
1453;DHT22;720;47.738;7.998;2023-07-13T08:24:42;34.40;45.50
1453;DHT22;720;47.738;7.998;2023-07-13T08:27:09;35.30;45.60
1453;DHT22;720;47.738;7.998;2023-07-13T08:29:37;36.30;43.40
1453;DHT22;720;47.738;7.998;2023-07-13T08:32:04;37.00;41.30
1453;DHT22;720;47.738;7.998;2023-07-13T08:34:29;37.10;40.50
1453;DHT22;720;47.738;7.998;2023-07-13T08:36:55;37.30;41.00
1453;DHT22;720;47.738;7.998;2023-07-13T08:39:21;36.80;41.90
1453;DHT22;720;47.738;7.998;2023-07-13T08:41:51;35.80;39.10
1453;DHT22;720;47.738;7.998;2023-07-13T08:44:32;36.00;40.30
1453;DHT22;720;47.738;7.998;2023-07-13T08:47:02;35.40;41.10
1453;DHT22;720;47.738;7.998;2023-07-13T08:49:28;34.00;42.10
1453;DHT22;720;47.738;7.998;2023-07-13T08:52:02;33.80;43.60
1453;DHT22;720;47.738;7.998;2023-07-13T08:54:37;33.70;41.90
1453;DHT22;720;47.738;7.998;2023-07-13T08:57:15;33.10;42.60
1453;DHT22;720;47.738;7.998;2023-07-13T08:59:42;32.40;45.50
1453;DHT22;720;47.738;7.998;2023-07-13T09:02:27;32.60;46.60
1453;DHT22;720;47.738;7.998;2023-07-13T09:07:28;31.90;44.70
1453;DHT22;720;47.738;7.998;2023-07-13T09:12:25;31.10;45.50
1453;DHT22;720;47.738;7.998;2023-07-13T09:14:55;31.60;46.60
1453;DHT22;720;47.738;7.998;2023-07-13T09:17:28;30.90;46.80
1453;DHT22;720;47.738;7.998;2023-07-13T09:20:17;30.70;46.20
1453;DHT22;720;47.738;7.998;2023-07-13T09:22:45;29.90;46.10
1453;DHT22;720;47.738;7.998;2023-07-13T09:25:31;28.80;50.90
1453;DHT22;720;47.738;7.998;2023-07-13T09:28:29;28.90;48.90
1453;DHT22;720;47.738;7.998;2023-07-13T09:31:26;29.90;46.00
1453;DHT22;720;47.738;7.998;2023-07-13T09:33:55;30.30;49.80
1453;DHT22;720;47.738;7.998;2023-07-13T09:36:25;30.90;47.50
1453;DHT22;720;47.738;7.998;2023-07-13T09:39:03;31.10;49.60
1453;DHT22;720;47.738;7.998;2023-07-13T09:44:18;31.00;45.90
1453;DHT22;720;47.738;7.998;2023-07-13T09:46:54;29.10;48.90
1453;DHT22;720;47.738;7.998;2023-07-13T09:49:25;28.40;50.60
1453;DHT22;720;47.738;7.998;2023-07-13T09:52:04;27.60;49.50
1453;DHT22;720;47.738;7.998;2023-07-13T09:54:33;27.40;50.70
1453;DHT22;720;47.738;7.998;2023-07-13T09:57:00;28.10;51.10
1453;DHT22;720;47.738;7.998;2023-07-13T09:59:32;28.60;51.50
1453;DHT22;720;47.738;7.998;2023-07-13T10:01:58;29.50;49.10
1453;DHT22;720;47.738;7.998;2023-07-13T10:04:41;30.40;45.50
1453;DHT22;720;47.738;7.998;2023-07-13T10:07:11;30.90;46.30
1453;DHT22;720;47.738;7.998;2023-07-13T10:09:38;31.40;47.60
1453;DHT22;720;47.738;7.998;2023-07-13T10:12:16;32.00;45.40
1453;DHT22;720;47.738;7.998;2023-07-13T10:14:43;32.70;43.70
1453;DHT22;720;47.738;7.998;2023-07-13T10:17:13;33.00;46.90
1453;DHT22;720;47.738;7.998;2023-07-13T10:19:41;32.40;44.30
1453;DHT22;720;47.738;7.998;2023-07-13T10:24:48;30.60;48.70
1453;DHT22;720;47.738;7.998;2023-07-13T10:27:20;31.10;46.60
1453;DHT22;720;47.738;7.998;2023-07-13T10:32:35;29.50;47.20
1453;DHT22;720;47.738;7.998;2023-07-13T10:35:01;28.50;49.30
1453;DHT22;720;47.738;7.998;2023-07-13T10:37:39;28.20;53.00
1453;DHT22;720;47.738;7.998;2023-07-13T10:40:12;27.80;50.20
1453;DHT22;720;47.738;7.998;2023-07-13T10:42:41;27.20;50.90
1453;DHT22;720;47.738;7.998;2023-07-13T10:45:29;27.10;56.00
1453;DHT22;720;47.738;7.998;2023-07-13T10:47:56;27.50;49.80
1453;DHT22;720;47.738;7.998;2023-07-13T10:50:24;28.00;52.90
1453;DHT22;720;47.738;7.998;2023-07-13T10:53:02;28.20;51.80
1453;DHT22;720;47.738;7.998;2023-07-13T10:55:41;27.80;50.50
1453;DHT22;720;47.738;7.998;2023-07-13T10:58:33;27.50;47.30
1453;DHT22;720;47.738;7.998;2023-07-13T11:01:17;27.40;53.70
1453;DHT22;720;47.738;7.998;2023-07-13T11:21:26;25.50;52.30
1453;DHT22;720;47.738;7.998;2023-07-13T11:24:01;24.90;54.20
1453;DHT22;720;47.738;7.998;2023-07-13T11:29:36;24.50;55.70
1453;DHT22;720;47.738;7.998;2023-07-13T11:32:22;24.50;57.10
1453;DHT22;720;47.738;7.998;2023-07-13T11:34:49;24.90;58.00
1453;DHT22;720;47.738;7.998;2023-07-13T11:37:17;25.30;53.30
1453;DHT22;720;47.738;7.998;2023-07-13T11:39:45;24.90;47.70
1453;DHT22;720;47.738;7.998;2023-07-13T11:42:17;25.20;47.80
1453;DHT22;720;47.738;7.998;2023-07-13T11:44:48;25.20;42.30
1453;DHT22;720;47.738;7.998;2023-07-13T11:47:19;25.30;42.70
1453;DHT22;720;47.738;7.998;2023-07-13T11:49:53;25.20;44.70
1453;DHT22;720;47.738;7.998;2023-07-13T11:52:32;25.50;44.70
1453;DHT22;720;47.738;7.998;2023-07-13T11:55:00;25.50;49.90
1453;DHT22;720;47.738;7.998;2023-07-13T11:57:31;25.50;53.90
1453;DHT22;720;47.738;7.998;2023-07-13T12:00:09;25.70;48.80
1453;DHT22;720;47.738;7.998;2023-07-13T12:02:39;25.70;52.50
1453;DHT22;720;47.738;7.998;2023-07-13T12:05:08;25.90;53.20
1453;DHT22;720;47.738;7.998;2023-07-13T12:07:35;25.90;52.50
1453;DHT22;720;47.738;7.998;2023-07-13T12:13:01;25.30;44.50
1453;DHT22;720;47.738;7.998;2023-07-13T12:15:40;25.00;46.20
1453;DHT22;720;47.738;7.998;2023-07-13T12:18:30;25.00;52.90
1453;DHT22;720;47.738;7.998;2023-07-13T12:20:58;25.20;49.80
1453;DHT22;720;47.738;7.998;2023-07-13T12:23:31;25.30;48.80
1453;DHT22;720;47.738;7.998;2023-07-13T12:25:59;25.10;62.50
1453;DHT22;720;47.738;7.998;2023-07-13T12:28:35;25.40;51.20
1453;DHT22;720;47.738;7.998;2023-07-13T12:31:05;25.40;49.60
1453;DHT22;720;47.738;7.998;2023-07-13T12:33:32;25.40;51.40
1453;DHT22;720;47.738;7.998;2023-07-13T12:36:01;25.20;63.70
1453;DHT22;720;47.738;7.998;2023-07-13T12:38:29;25.40;51.90
1453;DHT22;720;47.738;7.998;2023-07-13T12:40:55;25.50;49.50
1453;DHT22;720;47.738;7.998;2023-07-13T12:43:22;25.50;46.80
1453;DHT22;720;47.738;7.998;2023-07-13T12:46:03;25.10;54.70
1453;DHT22;720;47.738;7.998;2023-07-13T12:48:29;25.40;50.60
1453;DHT22;720;47.738;7.998;2023-07-13T12:50:56;25.40;51.20
1453;DHT22;720;47.738;7.998;2023-07-13T12:53:30;25.50;48.60
1453;DHT22;720;47.738;7.998;2023-07-13T12:56:01;25.30;61.40
1453;DHT22;720;47.738;7.998;2023-07-13T12:58:36;25.50;48.60
1453;DHT22;720;47.738;7.998;2023-07-13T13:01:02;25.30;49.50
1453;DHT22;720;47.738;7.998;2023-07-13T13:03:33;24.90;45.40
1453;DHT22;720;47.738;7.998;2023-07-13T13:08:42;24.40;46.80
1453;DHT22;720;47.738;7.998;2023-07-13T13:11:09;24.30;48.10
1453;DHT22;720;47.738;7.998;2023-07-13T13:13:35;24.30;48.40
1453;DHT22;720;47.738;7.998;2023-07-13T13:18:45;24.50;49.30
1453;DHT22;720;47.738;7.998;2023-07-13T13:21:11;24.60;47.40
1453;DHT22;720;47.738;7.998;2023-07-13T13:23:37;24.30;48.80
1453;DHT22;720;47.738;7.998;2023-07-13T13:26:08;24.10;48.70
1453;DHT22;720;47.738;7.998;2023-07-13T13:28:34;24.20;47.70
1453;DHT22;720;47.738;7.998;2023-07-13T13:31:00;24.20;48.90
1453;DHT22;720;47.738;7.998;2023-07-13T13:33:26;24.20;49.60
1453;DHT22;720;47.738;7.998;2023-07-13T13:35:51;23.90;52.50
1453;DHT22;720;47.738;7.998;2023-07-13T13:38:20;24.20;46.90
1453;DHT22;720;47.738;7.998;2023-07-13T13:40:50;24.20;48.10
1453;DHT22;720;47.738;7.998;2023-07-13T13:43:24;24.20;49.60
1453;DHT22;720;47.738;7.998;2023-07-13T13:45:53;24.40;53.90
1453;DHT22;720;47.738;7.998;2023-07-13T13:48:31;24.10;47.60
1453;DHT22;720;47.738;7.998;2023-07-13T13:50:58;24.10;48.60
1453;DHT22;720;47.738;7.998;2023-07-13T13:53:25;23.90;46.70
1453;DHT22;720;47.738;7.998;2023-07-13T13:55:50;24.20;55.80
1453;DHT22;720;47.738;7.998;2023-07-13T13:58:18;24.00;49.70
1453;DHT22;720;47.738;7.998;2023-07-13T14:00:44;24.10;50.40
1453;DHT22;720;47.738;7.998;2023-07-13T14:03:28;24.10;52.30
1453;DHT22;720;47.738;7.998;2023-07-13T14:05:54;24.20;64.40
1453;DHT22;720;47.738;7.998;2023-07-13T14:08:21;23.90;51.30
1453;DHT22;720;47.738;7.998;2023-07-13T14:10:52;24.00;52.80
1453;DHT22;720;47.738;7.998;2023-07-13T14:13:24;24.10;49.50
1453;DHT22;720;47.738;7.998;2023-07-13T14:15:52;24.10;54.90
1453;DHT22;720;47.738;7.998;2023-07-13T14:18:18;24.00;48.90
1453;DHT22;720;47.738;7.998;2023-07-13T14:20:47;23.90;53.80
1453;DHT22;720;47.738;7.998;2023-07-13T14:23:14;23.80;50.40
1453;DHT22;720;47.738;7.998;2023-07-13T14:25:41;23.70;49.80
1453;DHT22;720;47.738;7.998;2023-07-13T14:28:24;23.70;56.30
1453;DHT22;720;47.738;7.998;2023-07-13T14:30:51;23.40;47.40
1453;DHT22;720;47.738;7.998;2023-07-13T14:33:17;23.40;45.70
1453;DHT22;720;47.738;7.998;2023-07-13T14:35:43;23.40;45.60
1453;DHT22;720;47.738;7.998;2023-07-13T14:38:17;23.40;46.20
1453;DHT22;720;47.738;7.998;2023-07-13T14:40:43;23.30;52.10
1453;DHT22;720;47.738;7.998;2023-07-13T14:43:16;23.30;51.80
1453;DHT22;720;47.738;7.998;2023-07-13T14:45:48;23.20;47.70
1453;DHT22;720;47.738;7.998;2023-07-13T14:50:44;23.20;47.50
1453;DHT22;720;47.738;7.998;2023-07-13T14:53:12;23.10;48.80
1453;DHT22;720;47.738;7.998;2023-07-13T14:55:38;23.10;47.20
1453;DHT22;720;47.738;7.998;2023-07-13T14:58:04;23.10;53.90
1453;DHT22;720;47.738;7.998;2023-07-13T15:00:30;23.00;51.20
1453;DHT22;720;47.738;7.998;2023-07-13T15:02:57;23.00;48.30
1453;DHT22;720;47.738;7.998;2023-07-13T15:05:28;23.00;46.00
1453;DHT22;720;47.738;7.998;2023-07-13T15:07:57;23.00;48.70
1453;DHT22;720;47.738;7.998;2023-07-13T15:10:33;23.00;48.20
1453;DHT22;720;47.738;7.998;2023-07-13T15:13:16;22.80;49.40
1453;DHT22;720;47.738;7.998;2023-07-13T15:15:45;22.80;51.20
1453;DHT22;720;47.738;7.998;2023-07-13T15:18:12;22.60;50.40
1453;DHT22;720;47.738;7.998;2023-07-13T15:20:38;22.40;57.00
1453;DHT22;720;47.738;7.998;2023-07-13T15:23:04;22.10;53.70
1453;DHT22;720;47.738;7.998;2023-07-13T15:25:31;22.00;52.90
1453;DHT22;720;47.738;7.998;2023-07-13T15:27:59;22.10;53.20
1453;DHT22;720;47.738;7.998;2023-07-13T15:30:28;22.20;55.20
1453;DHT22;720;47.738;7.998;2023-07-13T15:32:55;22.00;59.50
1453;DHT22;720;47.738;7.998;2023-07-13T15:35:24;21.90;54.00
1453;DHT22;720;47.738;7.998;2023-07-13T15:37:50;21.90;56.40
1453;DHT22;720;47.738;7.998;2023-07-13T15:40:16;21.90;57.50
1453;DHT22;720;47.738;7.998;2023-07-13T15:42:44;21.90;53.20
1453;DHT22;720;47.738;7.998;2023-07-13T15:45:21;21.90;55.40
1453;DHT22;720;47.738;7.998;2023-07-13T15:47:48;21.90;59.00
1453;DHT22;720;47.738;7.998;2023-07-13T15:50:23;21.60;55.60
1453;DHT22;720;47.738;7.998;2023-07-13T15:52:52;21.60;55.40
1453;DHT22;720;47.738;7.998;2023-07-13T15:55:18;21.60;54.90
1453;DHT22;720;47.738;7.998;2023-07-13T15:57:49;21.60;58.50
1453;DHT22;720;47.738;7.998;2023-07-13T16:00:26;21.60;64.30
1453;DHT22;720;47.738;7.998;2023-07-13T16:02:53;21.50;56.20
1453;DHT22;720;47.738;7.998;2023-07-13T16:05:20;21.70;55.80
1453;DHT22;720;47.738;7.998;2023-07-13T16:07:49;21.80;60.80
1453;DHT22;720;47.738;7.998;2023-07-13T16:10:42;21.70;61.50
1453;DHT22;720;47.738;7.998;2023-07-13T16:13:14;21.70;59.10
1453;DHT22;720;47.738;7.998;2023-07-13T16:15:40;21.70;64.40
1453;DHT22;720;47.738;7.998;2023-07-13T16:18:13;21.50;61.80
1453;DHT22;720;47.738;7.998;2023-07-13T16:20:43;21.40;60.20
1453;DHT22;720;47.738;7.998;2023-07-13T16:23:10;21.50;58.00
1453;DHT22;720;47.738;7.998;2023-07-13T16:25:37;21.70;59.80
1453;DHT22;720;47.738;7.998;2023-07-13T16:28:03;21.80;58.30
1453;DHT22;720;47.738;7.998;2023-07-13T16:30:31;21.80;62.90
1453;DHT22;720;47.738;7.998;2023-07-13T16:33:00;21.80;60.10
1453;DHT22;720;47.738;7.998;2023-07-13T16:35:32;21.80;64.40
1453;DHT22;720;47.738;7.998;2023-07-13T16:38:02;21.60;67.90
1453;DHT22;720;47.738;7.998;2023-07-13T16:40:33;21.50;69.20
1453;DHT22;720;47.738;7.998;2023-07-13T16:43:00;21.30;70.40
1453;DHT22;720;47.738;7.998;2023-07-13T16:45:31;21.00;69.80
1453;DHT22;720;47.738;7.998;2023-07-13T16:48:00;20.80;62.00
1453;DHT22;720;47.738;7.998;2023-07-13T16:50:29;20.80;69.20
1453;DHT22;720;47.738;7.998;2023-07-13T16:52:55;20.60;72.90
1453;DHT22;720;47.738;7.998;2023-07-13T16:55:22;20.60;66.50
1453;DHT22;720;47.738;7.998;2023-07-13T16:57:58;20.60;70.00
1453;DHT22;720;47.738;7.998;2023-07-13T17:00:27;20.50;65.10
1453;DHT22;720;47.738;7.998;2023-07-13T17:02:57;20.40;63.50
1453;DHT22;720;47.738;7.998;2023-07-13T17:05:30;20.40;63.40
1453;DHT22;720;47.738;7.998;2023-07-13T17:07:59;20.40;61.80
1453;DHT22;720;47.738;7.998;2023-07-13T17:10:25;20.50;71.60
1453;DHT22;720;47.738;7.998;2023-07-13T17:12:53;20.30;68.20